sensor_id;sensor_type;location;lat;lon;timestamp;temperature;humidity
29501;DHT22;16450;50.288;10.966;2023-07-31T00:00:11;15.30;99.90
29501;DHT22;16450;50.288;10.966;2023-07-31T00:03:14;15.30;99.90
29501;DHT22;16450;50.288;10.966;2023-07-31T00:06:16;15.30;99.90
29501;DHT22;16450;50.288;10.966;2023-07-31T00:09:17;15.20;99.90
29501;DHT22;16450;50.288;10.966;2023-07-31T00:12:20;15.20;99.90
29501;DHT22;16450;50.288;10.966;2023-07-31T00:15:22;15.20;99.90
29501;DHT22;16450;50.288;10.966;2023-07-31T00:18:24;15.10;99.90
29501;DHT22;16450;50.288;10.966;2023-07-31T00:21:26;15.10;99.90
29501;DHT22;16450;50.288;10.966;2023-07-31T00:24:27;15.10;99.90
29501;DHT22;16450;50.288;10.966;2023-07-31T00:27:29;15.00;99.90
29501;DHT22;16450;50.288;10.966;2023-07-31T00:30:32;15.00;99.90
29501;DHT22;16450;50.288;10.966;2023-07-31T00:33:35;15.00;99.90
29501;DHT22;16450;50.288;10.966;2023-07-31T00:36:38;15.00;99.90
29501;DHT22;16450;50.288;10.966;2023-07-31T00:39:40;15.00;99.90
29501;DHT22;16450;50.288;10.966;2023-07-31T00:42:42;15.00;99.90
29501;DHT22;16450;50.288;10.966;2023-07-31T00:45:44;15.00;99.90
29501;DHT22;16450;50.288;10.966;2023-07-31T00:48:45;15.00;99.90
29501;DHT22;16450;50.288;10.966;2023-07-31T00:51:47;15.00;99.90
29501;DHT22;16450;50.288;10.966;2023-07-31T00:54:49;15.00;99.90
29501;DHT22;16450;50.288;10.966;2023-07-31T00:57:52;15.00;99.90
29501;DHT22;16450;50.288;10.966;2023-07-31T01:00:57;14.90;99.90
29501;DHT22;16450;50.288;10.966;2023-07-31T01:03:59;14.90;99.90
29501;DHT22;16450;50.288;10.966;2023-07-31T01:07:33;14.90;99.90
29501;DHT22;16450;50.288;10.966;2023-07-31T01:11:00;14.90;99.90
29501;DHT22;16450;50.288;10.966;2023-07-31T01:14:04;14.90;99.90
29501;DHT22;16450;50.288;10.966;2023-07-31T01:17:06;14.80;99.90
29501;DHT22;16450;50.288;10.966;2023-07-31T01:20:17;14.80;99.90
29501;DHT22;16450;50.288;10.966;2023-07-31T01:23:41;14.90;99.90
29501;DHT22;16450;50.288;10.966;2023-07-31T01:26:58;14.80;99.90
29501;DHT22;16450;50.288;10.966;2023-07-31T01:30:21;14.80;99.90
29501;DHT22;16450;50.288;10.966;2023-07-31T01:33:24;14.80;99.90
29501;DHT22;16450;50.288;10.966;2023-07-31T01:36:28;14.80;99.90
29501;DHT22;16450;50.288;10.966;2023-07-31T01:39:30;14.80;99.90
29501;DHT22;16450;50.288;10.966;2023-07-31T01:42:32;14.80;99.90
29501;DHT22;16450;50.288;10.966;2023-07-31T01:45:34;14.80;99.90
29501;DHT22;16450;50.288;10.966;2023-07-31T01:48:36;14.80;99.90
29501;DHT22;16450;50.288;10.966;2023-07-31T01:51:38;14.70;99.90
29501;DHT22;16450;50.288;10.966;2023-07-31T01:54:40;14.80;99.90
29501;DHT22;16450;50.288;10.966;2023-07-31T01:57:42;14.80;99.90
29501;DHT22;16450;50.288;10.966;2023-07-31T02:00:44;14.70;99.90
29501;DHT22;16450;50.288;10.966;2023-07-31T02:03:46;14.70;99.90
29501;DHT22;16450;50.288;10.966;2023-07-31T02:06:48;14.70;99.90
29501;DHT22;16450;50.288;10.966;2023-07-31T02:09:50;14.70;99.90
29501;DHT22;16450;50.288;10.966;2023-07-31T02:12:52;14.70;99.90
29501;DHT22;16450;50.288;10.966;2023-07-31T02:15:54;14.70;99.90
29501;DHT22;16450;50.288;10.966;2023-07-31T02:18:56;14.60;99.90
29501;DHT22;16450;50.288;10.966;2023-07-31T02:21:58;14.60;99.90
29501;DHT22;16450;50.288;10.966;2023-07-31T02:25:00;14.70;99.90
29501;DHT22;16450;50.288;10.966;2023-07-31T02:28:02;14.60;99.90
29501;DHT22;16450;50.288;10.966;2023-07-31T02:31:04;14.60;99.90
29501;DHT22;16450;50.288;10.966;2023-07-31T02:34:06;14.60;99.90
29501;DHT22;16450;50.288;10.966;2023-07-31T02:37:08;14.50;99.90
29501;DHT22;16450;50.288;10.966;2023-07-31T02:40:10;14.60;99.90
29501;DHT22;16450;50.288;10.966;2023-07-31T02:43:12;14.60;99.90
29501;DHT22;16450;50.288;10.966;2023-07-31T02:46:14;14.50;99.90
29501;DHT22;16450;50.288;10.966;2023-07-31T02:49:16;14.50;99.90
29501;DHT22;16450;50.288;10.966;2023-07-31T02:52:18;14.50;99.90
29501;DHT22;16450;50.288;10.966;2023-07-31T02:55:20;14.50;99.90
29501;DHT22;16450;50.288;10.966;2023-07-31T02:58:22;14.50;99.90
29501;DHT22;16450;50.288;10.966;2023-07-31T03:01:23;14.50;99.90
29501;DHT22;16450;50.288;10.966;2023-07-31T03:04:26;14.50;99.90
29501;DHT22;16450;50.288;10.966;2023-07-31T03:07:27;14.50;99.90
29501;DHT22;16450;50.288;10.966;2023-07-31T03:10:30;14.50;99.90
29501;DHT22;16450;50.288;10.966;2023-07-31T03:13:32;14.50;99.90
29501;DHT22;16450;50.288;10.966;2023-07-31T03:16:35;14.50;99.90
29501;DHT22;16450;50.288;10.966;2023-07-31T03:19:37;14.50;99.90
29501;DHT22;16450;50.288;10.966;2023-07-31T03:22:39;14.40;99.90
29501;DHT22;16450;50.288;10.966;2023-07-31T03:25:58;14.50;99.90
29501;DHT22;16450;50.288;10.966;2023-07-31T03:29:00;14.50;99.90
29501;DHT22;16450;50.288;10.966;2023-07-31T03:32:02;14.50;99.90
29501;DHT22;16450;50.288;10.966;2023-07-31T03:35:05;14.50;99.90
29501;DHT22;16450;50.288;10.966;2023-07-31T03:38:07;14.50;99.90
29501;DHT22;16450;50.288;10.966;2023-07-31T03:41:13;14.50;99.90
29501;DHT22;16450;50.288;10.966;2023-07-31T03:44:15;14.50;99.90
29501;DHT22;16450;50.288;10.966;2023-07-31T03:47:16;14.50;99.90
29501;DHT22;16450;50.288;10.966;2023-07-31T03:50:18;14.50;99.90
29501;DHT22;16450;50.288;10.966;2023-07-31T03:53:20;14.50;99.90
29501;DHT22;16450;50.288;10.966;2023-07-31T03:56:22;14.50;99.90
29501;DHT22;16450;50.288;10.966;2023-07-31T03:59:29;14.50;99.90
29501;DHT22;16450;50.288;10.966;2023-07-31T04:02:31;14.50;99.90
29501;DHT22;16450;50.288;10.966;2023-07-31T04:05:33;14.50;99.90
29501;DHT22;16450;50.288;10.966;2023-07-31T04:08:39;14.60;99.90
29501;DHT22;16450;50.288;10.966;2023-07-31T04:11:41;14.60;99.90
29501;DHT22;16450;50.288;10.966;2023-07-31T04:14:43;14.60;99.90
29501;DHT22;16450;50.288;10.966;2023-07-31T04:17:45;14.60;99.90
29501;DHT22;16450;50.288;10.966;2023-07-31T04:20:47;14.70;99.90
29501;DHT22;16450;50.288;10.966;2023-07-31T04:23:48;14.60;99.90
29501;DHT22;16450;50.288;10.966;2023-07-31T04:26:51;14.60;99.90
29501;DHT22;16450;50.288;10.966;2023-07-31T04:29:53;14.70;99.90
29501;DHT22;16450;50.288;10.966;2023-07-31T04:32:55;14.60;99.90
29501;DHT22;16450;50.288;10.966;2023-07-31T04:35:58;14.60;99.90
29501;DHT22;16450;50.288;10.966;2023-07-31T04:39:00;14.60;99.90
29501;DHT22;16450;50.288;10.966;2023-07-31T04:42:02;14.60;99.90
29501;DHT22;16450;50.288;10.966;2023-07-31T04:45:05;14.60;99.90
29501;DHT22;16450;50.288;10.966;2023-07-31T04:48:07;14.60;99.90
29501;DHT22;16450;50.288;10.966;2023-07-31T04:51:09;14.70;99.90
29501;DHT22;16450;50.288;10.966;2023-07-31T04:54:11;14.60;99.90
29501;DHT22;16450;50.288;10.966;2023-07-31T04:57:14;14.70;99.90
29501;DHT22;16450;50.288;10.966;2023-07-31T05:00:16;14.70;99.90
29501;DHT22;16450;50.288;10.966;2023-07-31T05:03:18;14.70;99.90
29501;DHT22;16450;50.288;10.966;2023-07-31T05:06:20;14.70;99.90
29501;DHT22;16450;50.288;10.966;2023-07-31T05:09:22;14.70;99.90
29501;DHT22;16450;50.288;10.966;2023-07-31T05:12:24;14.70;99.90
29501;DHT22;16450;50.288;10.966;2023-07-31T05:15:26;14.70;99.90
29501;DHT22;16450;50.288;10.966;2023-07-31T05:18:28;14.70;99.90
29501;DHT22;16450;50.288;10.966;2023-07-31T05:21:30;14.80;99.90
29501;DHT22;16450;50.288;10.966;2023-07-31T05:24:32;14.80;99.90
29501;DHT22;16450;50.288;10.966;2023-07-31T05:27:34;14.80;99.90
29501;DHT22;16450;50.288;10.966;2023-07-31T05:30:36;14.80;99.90
29501;DHT22;16450;50.288;10.966;2023-07-31T05:33:38;14.80;99.90
29501;DHT22;16450;50.288;10.966;2023-07-31T05:36:41;14.90;99.90
29501;DHT22;16450;50.288;10.966;2023-07-31T05:39:43;14.90;99.90
29501;DHT22;16450;50.288;10.966;2023-07-31T05:42:45;14.90;99.90
29501;DHT22;16450;50.288;10.966;2023-07-31T05:45:47;15.00;99.90
29501;DHT22;16450;50.288;10.966;2023-07-31T05:48:51;15.00;99.90
29501;DHT22;16450;50.288;10.966;2023-07-31T05:51:53;15.00;99.90
29501;DHT22;16450;50.288;10.966;2023-07-31T05:54:55;15.10;99.90
29501;DHT22;16450;50.288;10.966;2023-07-31T05:57:57;15.10;99.90
29501;DHT22;16450;50.288;10.966;2023-07-31T06:01:02;15.10;99.90
29501;DHT22;16450;50.288;10.966;2023-07-31T06:04:04;15.10;99.90
29501;DHT22;16450;50.288;10.966;2023-07-31T06:07:06;15.20;99.90
29501;DHT22;16450;50.288;10.966;2023-07-31T06:10:08;15.20;99.90
29501;DHT22;16450;50.288;10.966;2023-07-31T06:13:11;15.30;99.90
29501;DHT22;16450;50.288;10.966;2023-07-31T06:16:12;15.30;99.90
29501;DHT22;16450;50.288;10.966;2023-07-31T06:19:14;15.40;99.90
29501;DHT22;16450;50.288;10.966;2023-07-31T06:22:16;15.50;99.90
29501;DHT22;16450;50.288;10.966;2023-07-31T06:25:18;15.50;99.90
29501;DHT22;16450;50.288;10.966;2023-07-31T06:28:20;15.50;99.90
29501;DHT22;16450;50.288;10.966;2023-07-31T06:31:22;15.60;99.90
29501;DHT22;16450;50.288;10.966;2023-07-31T06:34:25;15.60;99.90
29501;DHT22;16450;50.288;10.966;2023-07-31T06:37:27;15.60;99.90
29501;DHT22;16450;50.288;10.966;2023-07-31T06:40:30;15.60;99.90
29501;DHT22;16450;50.288;10.966;2023-07-31T06:43:32;15.60;99.90
29501;DHT22;16450;50.288;10.966;2023-07-31T06:46:33;15.60;99.90
29501;DHT22;16450;50.288;10.966;2023-07-31T06:49:35;15.60;99.90
29501;DHT22;16450;50.288;10.966;2023-07-31T06:52:37;15.60;99.90
29501;DHT22;16450;50.288;10.966;2023-07-31T06:55:40;15.60;99.90
29501;DHT22;16450;50.288;10.966;2023-07-31T06:58:42;15.70;99.90
29501;DHT22;16450;50.288;10.966;2023-07-31T07:01:44;15.70;99.90
29501;DHT22;16450;50.288;10.966;2023-07-31T07:04:46;15.70;99.90
29501;DHT22;16450;50.288;10.966;2023-07-31T07:07:49;15.80;99.90
29501;DHT22;16450;50.288;10.966;2023-07-31T07:10:52;15.70;99.90
29501;DHT22;16450;50.288;10.966;2023-07-31T07:13:55;15.80;99.90
29501;DHT22;16450;50.288;10.966;2023-07-31T07:16:57;15.80;99.90
29501;DHT22;16450;50.288;10.966;2023-07-31T07:20:00;15.90;99.90
29501;DHT22;16450;50.288;10.966;2023-07-31T07:23:02;15.80;99.90
29501;DHT22;16450;50.288;10.966;2023-07-31T07:26:05;15.80;99.90
29501;DHT22;16450;50.288;10.966;2023-07-31T07:29:07;15.80;99.90
29501;DHT22;16450;50.288;10.966;2023-07-31T07:32:09;15.80;99.90
29501;DHT22;16450;50.288;10.966;2023-07-31T07:35:11;15.80;99.90
29501;DHT22;16450;50.288;10.966;2023-07-31T07:38:14;16.00;99.90
29501;DHT22;16450;50.288;10.966;2023-07-31T07:41:20;15.90;99.90
29501;DHT22;16450;50.288;10.966;2023-07-31T07:44:22;15.90;99.90
29501;DHT22;16450;50.288;10.966;2023-07-31T07:47:24;15.70;99.90
29501;DHT22;16450;50.288;10.966;2023-07-31T07:50:29;15.90;99.90
29501;DHT22;16450;50.288;10.966;2023-07-31T07:53:31;15.90;99.90
29501;DHT22;16450;50.288;10.966;2023-07-31T07:56:33;15.80;99.90
29501;DHT22;16450;50.288;10.966;2023-07-31T07:59:40;15.90;99.90
29501;DHT22;16450;50.288;10.966;2023-07-31T08:02:43;15.90;99.90
29501;DHT22;16450;50.288;10.966;2023-07-31T08:05:45;16.00;99.90
29501;DHT22;16450;50.288;10.966;2023-07-31T08:08:47;16.10;99.90
29501;DHT22;16450;50.288;10.966;2023-07-31T08:11:49;16.20;99.90
29501;DHT22;16450;50.288;10.966;2023-07-31T08:14:51;16.30;99.90
29501;DHT22;16450;50.288;10.966;2023-07-31T08:17:53;16.40;99.90
29501;DHT22;16450;50.288;10.966;2023-07-31T08:20:55;16.50;99.90
29501;DHT22;16450;50.288;10.966;2023-07-31T08:23:58;16.70;99.90
29501;DHT22;16450;50.288;10.966;2023-07-31T08:27:00;16.80;99.90
29501;DHT22;16450;50.288;10.966;2023-07-31T08:30:02;16.80;99.90
29501;DHT22;16450;50.288;10.966;2023-07-31T08:33:04;16.90;99.90
29501;DHT22;16450;50.288;10.966;2023-07-31T08:36:06;17.00;99.90
29501;DHT22;16450;50.288;10.966;2023-07-31T08:39:08;17.10;99.90
29501;DHT22;16450;50.288;10.966;2023-07-31T08:42:10;17.20;99.90
29501;DHT22;16450;50.288;10.966;2023-07-31T08:45:16;17.30;99.90
29501;DHT22;16450;50.288;10.966;2023-07-31T08:48:22;17.30;99.90
29501;DHT22;16450;50.288;10.966;2023-07-31T08:51:25;17.50;99.90
29501;DHT22;16450;50.288;10.966;2023-07-31T08:54:28;17.60;99.90
29501;DHT22;16450;50.288;10.966;2023-07-31T08:57:35;17.80;99.90
29501;DHT22;16450;50.288;10.966;2023-07-31T09:00:37;17.90;99.90
29501;DHT22;16450;50.288;10.966;2023-07-31T09:03:40;18.10;99.90
29501;DHT22;16450;50.288;10.966;2023-07-31T09:06:44;18.20;99.90
29501;DHT22;16450;50.288;10.966;2023-07-31T09:09:46;18.40;99.90
29501;DHT22;16450;50.288;10.966;2023-07-31T09:12:49;18.50;99.90
29501;DHT22;16450;50.288;10.966;2023-07-31T09:15:52;18.60;99.90
29501;DHT22;16450;50.288;10.966;2023-07-31T09:18:55;18.70;99.90
29501;DHT22;16450;50.288;10.966;2023-07-31T09:21:58;18.80;99.90
29501;DHT22;16450;50.288;10.966;2023-07-31T09:25:21;18.80;99.90
29501;DHT22;16450;50.288;10.966;2023-07-31T09:28:31;18.80;99.90
29501;DHT22;16450;50.288;10.966;2023-07-31T09:31:43;18.80;99.90
29501;DHT22;16450;50.288;10.966;2023-07-31T09:34:45;18.90;99.90
29501;DHT22;16450;50.288;10.966;2023-07-31T09:37:56;19.00;99.90
29501;DHT22;16450;50.288;10.966;2023-07-31T09:40:59;19.00;99.90
29501;DHT22;16450;50.288;10.966;2023-07-31T09:44:01;19.00;99.90
29501;DHT22;16450;50.288;10.966;2023-07-31T09:47:03;19.00;99.90
29501;DHT22;16450;50.288;10.966;2023-07-31T09:50:07;19.00;99.90
29501;DHT22;16450;50.288;10.966;2023-07-31T09:53:11;19.10;99.90
29501;DHT22;16450;50.288;10.966;2023-07-31T09:56:13;19.30;99.90
29501;DHT22;16450;50.288;10.966;2023-07-31T09:59:16;19.50;99.90
29501;DHT22;16450;50.288;10.966;2023-07-31T10:02:22;19.70;99.90
29501;DHT22;16450;50.288;10.966;2023-07-31T10:05:46;19.90;99.90
29501;DHT22;16450;50.288;10.966;2023-07-31T10:08:52;20.10;99.90
29501;DHT22;16450;50.288;10.966;2023-07-31T10:12:00;20.30;99.90
29501;DHT22;16450;50.288;10.966;2023-07-31T10:15:05;20.40;99.90
29501;DHT22;16450;50.288;10.966;2023-07-31T10:18:08;20.30;99.90
29501;DHT22;16450;50.288;10.966;2023-07-31T10:21:11;20.40;99.90
29501;DHT22;16450;50.288;10.966;2023-07-31T10:24:14;20.40;99.90
29501;DHT22;16450;50.288;10.966;2023-07-31T10:27:17;20.40;99.90
29501;DHT22;16450;50.288;10.966;2023-07-31T10:30:23;20.50;99.90
29501;DHT22;16450;50.288;10.966;2023-07-31T10:33:26;20.60;99.90
29501;DHT22;16450;50.288;10.966;2023-07-31T10:36:29;20.60;99.90
29501;DHT22;16450;50.288;10.966;2023-07-31T10:39:36;20.60;99.90
29501;DHT22;16450;50.288;10.966;2023-07-31T10:42:57;20.70;99.90
29501;DHT22;16450;50.288;10.966;2023-07-31T10:46:00;20.70;99.90
29501;DHT22;16450;50.288;10.966;2023-07-31T10:49:07;20.70;99.90
29501;DHT22;16450;50.288;10.966;2023-07-31T10:52:12;20.80;99.90
29501;DHT22;16450;50.288;10.966;2023-07-31T10:58:22;20.90;99.90
29501;DHT22;16450;50.288;10.966;2023-07-31T11:01:50;20.90;99.90
29501;DHT22;16450;50.288;10.966;2023-07-31T11:05:08;20.90;99.90
29501;DHT22;16450;50.288;10.966;2023-07-31T11:08:18;20.90;99.90
29501;DHT22;16450;50.288;10.966;2023-07-31T11:11:26;20.80;99.90
29501;DHT22;16450;50.288;10.966;2023-07-31T11:14:32;20.80;99.90
29501;DHT22;16450;50.288;10.966;2023-07-31T11:17:39;20.70;99.90
29501;DHT22;16450;50.288;10.966;2023-07-31T11:20:41;20.60;99.90
29501;DHT22;16450;50.288;10.966;2023-07-31T11:23:47;20.50;99.90
29501;DHT22;16450;50.288;10.966;2023-07-31T11:26:52;20.30;99.90
29501;DHT22;16450;50.288;10.966;2023-07-31T11:30:00;20.20;99.90
29501;DHT22;16450;50.288;10.966;2023-07-31T11:33:05;20.10;99.90
29501;DHT22;16450;50.288;10.966;2023-07-31T11:36:17;19.80;99.90
29501;DHT22;16450;50.288;10.966;2023-07-31T11:39:19;19.70;99.90
29501;DHT22;16450;50.288;10.966;2023-07-31T11:42:22;19.50;99.90
29501;DHT22;16450;50.288;10.966;2023-07-31T11:45:27;19.40;99.90
29501;DHT22;16450;50.288;10.966;2023-07-31T11:48:31;19.30;99.90
29501;DHT22;16450;50.288;10.966;2023-07-31T11:51:35;19.20;99.90
29501;DHT22;16450;50.288;10.966;2023-07-31T11:54:37;19.20;99.90
29501;DHT22;16450;50.288;10.966;2023-07-31T11:57:40;19.10;99.90
29501;DHT22;16450;50.288;10.966;2023-07-31T12:00:43;19.10;99.90
29501;DHT22;16450;50.288;10.966;2023-07-31T12:03:46;19.10;99.90
29501;DHT22;16450;50.288;10.966;2023-07-31T12:06:48;19.00;99.90
29501;DHT22;16450;50.288;10.966;2023-07-31T12:09:53;19.00;99.90
29501;DHT22;16450;50.288;10.966;2023-07-31T12:13:25;18.90;99.90
29501;DHT22;16450;50.288;10.966;2023-07-31T12:16:30;18.90;99.90
29501;DHT22;16450;50.288;10.966;2023-07-31T12:19:32;18.90;99.90
29501;DHT22;16450;50.288;10.966;2023-07-31T12:22:38;18.90;99.90
29501;DHT22;16450;50.288;10.966;2023-07-31T12:25:40;19.00;99.90
29501;DHT22;16450;50.288;10.966;2023-07-31T12:28:43;19.00;99.90
29501;DHT22;16450;50.288;10.966;2023-07-31T12:31:45;19.00;99.90
29501;DHT22;16450;50.288;10.966;2023-07-31T12:34:47;19.00;99.90
29501;DHT22;16450;50.288;10.966;2023-07-31T12:37:49;19.20;99.90
29501;DHT22;16450;50.288;10.966;2023-07-31T12:40:51;18.90;99.90
29501;DHT22;16450;50.288;10.966;2023-07-31T12:43:53;19.00;99.90
29501;DHT22;16450;50.288;10.966;2023-07-31T12:46:55;19.10;99.90
29501;DHT22;16450;50.288;10.966;2023-07-31T12:49:57;19.10;99.90
29501;DHT22;16450;50.288;10.966;2023-07-31T12:52:59;19.10;99.90
29501;DHT22;16450;50.288;10.966;2023-07-31T12:56:01;19.20;99.90
29501;DHT22;16450;50.288;10.966;2023-07-31T12:59:03;19.20;99.90
29501;DHT22;16450;50.288;10.966;2023-07-31T13:02:07;19.20;99.90
29501;DHT22;16450;50.288;10.966;2023-07-31T13:05:09;19.20;99.90
29501;DHT22;16450;50.288;10.966;2023-07-31T13:08:11;19.20;99.90
29501;DHT22;16450;50.288;10.966;2023-07-31T13:11:14;19.20;99.90
29501;DHT22;16450;50.288;10.966;2023-07-31T13:14:15;19.20;99.90
29501;DHT22;16450;50.288;10.966;2023-07-31T13:17:19;19.30;99.90
29501;DHT22;16450;50.288;10.966;2023-07-31T13:20:21;19.40;99.90
29501;DHT22;16450;50.288;10.966;2023-07-31T13:23:23;19.50;99.90
29501;DHT22;16450;50.288;10.966;2023-07-31T13:26:25;19.60;99.90
29501;DHT22;16450;50.288;10.966;2023-07-31T13:29:26;19.80;99.90
29501;DHT22;16450;50.288;10.966;2023-07-31T13:32:29;19.90;99.90
29501;DHT22;16450;50.288;10.966;2023-07-31T13:35:31;20.00;99.90
29501;DHT22;16450;50.288;10.966;2023-07-31T13:38:33;20.10;99.90
29501;DHT22;16450;50.288;10.966;2023-07-31T13:41:35;20.10;99.90
29501;DHT22;16450;50.288;10.966;2023-07-31T13:44:37;20.20;99.90
29501;DHT22;16450;50.288;10.966;2023-07-31T13:47:39;20.20;99.90
29501;DHT22;16450;50.288;10.966;2023-07-31T13:50:41;20.30;99.90
29501;DHT22;16450;50.288;10.966;2023-07-31T13:53:43;20.40;99.90
29501;DHT22;16450;50.288;10.966;2023-07-31T13:56:46;20.50;99.90
29501;DHT22;16450;50.288;10.966;2023-07-31T13:59:48;20.60;99.90
29501;DHT22;16450;50.288;10.966;2023-07-31T14:02:50;20.60;99.90
29501;DHT22;16450;50.288;10.966;2023-07-31T14:05:53;20.70;99.90
29501;DHT22;16450;50.288;10.966;2023-07-31T14:08:55;20.80;99.90
29501;DHT22;16450;50.288;10.966;2023-07-31T14:11:57;20.70;99.90
29501;DHT22;16450;50.288;10.966;2023-07-31T14:14:59;20.70;99.90
29501;DHT22;16450;50.288;10.966;2023-07-31T14:18:01;20.70;99.90
29501;DHT22;16450;50.288;10.966;2023-07-31T14:21:03;20.60;99.90
29501;DHT22;16450;50.288;10.966;2023-07-31T14:24:06;20.60;99.90
29501;DHT22;16450;50.288;10.966;2023-07-31T14:27:08;20.50;99.90
29501;DHT22;16450;50.288;10.966;2023-07-31T14:30:10;20.40;99.90
29501;DHT22;16450;50.288;10.966;2023-07-31T14:33:12;20.40;99.90
29501;DHT22;16450;50.288;10.966;2023-07-31T14:36:14;20.40;99.90
29501;DHT22;16450;50.288;10.966;2023-07-31T14:39:16;20.30;99.90
29501;DHT22;16450;50.288;10.966;2023-07-31T14:42:18;20.30;99.90
29501;DHT22;16450;50.288;10.966;2023-07-31T14:45:21;20.30;99.90
29501;DHT22;16450;50.288;10.966;2023-07-31T14:48:23;20.30;99.90
29501;DHT22;16450;50.288;10.966;2023-07-31T14:51:25;20.30;99.90
29501;DHT22;16450;50.288;10.966;2023-07-31T14:54:27;20.30;99.90
29501;DHT22;16450;50.288;10.966;2023-07-31T14:57:29;20.30;99.90
29501;DHT22;16450;50.288;10.966;2023-07-31T15:00:31;20.40;99.90
29501;DHT22;16450;50.288;10.966;2023-07-31T15:03:32;20.40;99.90
29501;DHT22;16450;50.288;10.966;2023-07-31T15:06:34;20.50;99.90
29501;DHT22;16450;50.288;10.966;2023-07-31T15:09:36;20.60;99.90
29501;DHT22;16450;50.288;10.966;2023-07-31T15:12:40;20.60;99.90
29501;DHT22;16450;50.288;10.966;2023-07-31T15:15:42;20.60;99.90
29501;DHT22;16450;50.288;10.966;2023-07-31T15:18:44;20.60;99.90
29501;DHT22;16450;50.288;10.966;2023-07-31T15:21:46;20.60;99.90
29501;DHT22;16450;50.288;10.966;2023-07-31T15:24:48;20.50;99.90
29501;DHT22;16450;50.288;10.966;2023-07-31T15:27:50;20.60;99.90
29501;DHT22;16450;50.288;10.966;2023-07-31T15:30:52;20.60;99.90
29501;DHT22;16450;50.288;10.966;2023-07-31T15:33:55;20.60;99.90
29501;DHT22;16450;50.288;10.966;2023-07-31T15:36:56;20.70;99.90
29501;DHT22;16450;50.288;10.966;2023-07-31T15:39:58;20.70;99.90
29501;DHT22;16450;50.288;10.966;2023-07-31T15:43:00;20.80;99.90
29501;DHT22;16450;50.288;10.966;2023-07-31T15:46:04;20.80;99.90
29501;DHT22;16450;50.288;10.966;2023-07-31T15:49:06;20.90;99.90
29501;DHT22;16450;50.288;10.966;2023-07-31T15:52:08;20.90;99.90
29501;DHT22;16450;50.288;10.966;2023-07-31T15:55:10;20.90;99.90
29501;DHT22;16450;50.288;10.966;2023-07-31T15:58:12;20.90;99.90
29501;DHT22;16450;50.288;10.966;2023-07-31T16:01:13;20.90;99.90
29501;DHT22;16450;50.288;10.966;2023-07-31T16:04:16;20.90;99.90
29501;DHT22;16450;50.288;10.966;2023-07-31T16:07:18;20.90;99.90
29501;DHT22;16450;50.288;10.966;2023-07-31T16:10:21;20.90;99.90
29501;DHT22;16450;50.288;10.966;2023-07-31T16:13:23;20.90;99.90
29501;DHT22;16450;50.288;10.966;2023-07-31T16:16:25;20.90;99.90
29501;DHT22;16450;50.288;10.966;2023-07-31T16:19:29;21.00;99.90
29501;DHT22;16450;50.288;10.966;2023-07-31T16:22:31;21.00;99.90
29501;DHT22;16450;50.288;10.966;2023-07-31T16:25:33;21.00;99.90
29501;DHT22;16450;50.288;10.966;2023-07-31T16:28:35;21.00;99.90
29501;DHT22;16450;50.288;10.966;2023-07-31T16:31:37;21.00;99.90
29501;DHT22;16450;50.288;10.966;2023-07-31T16:34:56;21.00;99.90
29501;DHT22;16450;50.288;10.966;2023-07-31T16:37:58;20.90;99.90
29501;DHT22;16450;50.288;10.966;2023-07-31T16:41:00;20.90;99.90
29501;DHT22;16450;50.288;10.966;2023-07-31T16:44:02;20.90;99.90
29501;DHT22;16450;50.288;10.966;2023-07-31T16:47:04;20.80;99.90
29501;DHT22;16450;50.288;10.966;2023-07-31T16:50:07;20.80;99.90
29501;DHT22;16450;50.288;10.966;2023-07-31T16:53:09;20.70;99.90
29501;DHT22;16450;50.288;10.966;2023-07-31T16:56:11;20.60;99.90
29501;DHT22;16450;50.288;10.966;2023-07-31T16:59:13;20.60;99.90
29501;DHT22;16450;50.288;10.966;2023-07-31T17:02:15;20.50;99.90
29501;DHT22;16450;50.288;10.966;2023-07-31T17:05:18;20.50;99.90
29501;DHT22;16450;50.288;10.966;2023-07-31T17:08:20;20.50;99.90
29501;DHT22;16450;50.288;10.966;2023-07-31T17:11:22;20.40;99.90
29501;DHT22;16450;50.288;10.966;2023-07-31T17:14:24;20.40;99.90
29501;DHT22;16450;50.288;10.966;2023-07-31T17:17:26;20.30;99.90
29501;DHT22;16450;50.288;10.966;2023-07-31T17:20:30;20.30;99.90
29501;DHT22;16450;50.288;10.966;2023-07-31T17:23:34;20.30;99.90
29501;DHT22;16450;50.288;10.966;2023-07-31T17:26:36;20.30;99.90
29501;DHT22;16450;50.288;10.966;2023-07-31T17:29:38;20.30;99.90
29501;DHT22;16450;50.288;10.966;2023-07-31T17:32:40;20.20;99.90
29501;DHT22;16450;50.288;10.966;2023-07-31T17:35:43;20.30;99.90
29501;DHT22;16450;50.288;10.966;2023-07-31T17:38:45;20.20;99.90
29501;DHT22;16450;50.288;10.966;2023-07-31T17:41:47;20.20;99.90
29501;DHT22;16450;50.288;10.966;2023-07-31T17:44:50;20.20;99.90
29501;DHT22;16450;50.288;10.966;2023-07-31T17:47:53;20.20;99.90
29501;DHT22;16450;50.288;10.966;2023-07-31T17:50:55;20.20;99.90
29501;DHT22;16450;50.288;10.966;2023-07-31T17:53:57;20.10;99.90
29501;DHT22;16450;50.288;10.966;2023-07-31T17:56:59;20.10;99.90
29501;DHT22;16450;50.288;10.966;2023-07-31T18:00:02;20.10;99.90
29501;DHT22;16450;50.288;10.966;2023-07-31T18:03:04;20.10;99.90
29501;DHT22;16450;50.288;10.966;2023-07-31T18:06:08;20.00;99.90
29501;DHT22;16450;50.288;10.966;2023-07-31T18:09:10;20.10;99.90
29501;DHT22;16450;50.288;10.966;2023-07-31T18:12:12;20.00;99.90
29501;DHT22;16450;50.288;10.966;2023-07-31T18:15:14;20.00;99.90
29501;DHT22;16450;50.288;10.966;2023-07-31T18:18:16;20.00;99.90
29501;DHT22;16450;50.288;10.966;2023-07-31T18:21:18;20.00;99.90
29501;DHT22;16450;50.288;10.966;2023-07-31T18:24:19;19.90;99.90
29501;DHT22;16450;50.288;10.966;2023-07-31T18:27:21;19.90;99.90
29501;DHT22;16450;50.288;10.966;2023-07-31T18:30:25;19.90;99.90
29501;DHT22;16450;50.288;10.966;2023-07-31T18:33:28;19.90;99.90
29501;DHT22;16450;50.288;10.966;2023-07-31T18:36:30;19.80;99.90
29501;DHT22;16450;50.288;10.966;2023-07-31T18:39:31;19.80;99.90
29501;DHT22;16450;50.288;10.966;2023-07-31T18:42:33;19.70;99.90
29501;DHT22;16450;50.288;10.966;2023-07-31T18:45:36;19.70;99.90
29501;DHT22;16450;50.288;10.966;2023-07-31T18:48:38;19.70;99.90
29501;DHT22;16450;50.288;10.966;2023-07-31T18:51:41;19.60;99.90
29501;DHT22;16450;50.288;10.966;2023-07-31T18:54:43;19.60;99.90
29501;DHT22;16450;50.288;10.966;2023-07-31T18:57:45;19.60;99.90
29501;DHT22;16450;50.288;10.966;2023-07-31T19:00:48;19.50;99.90